»·PEaware :: AAL2020 KPHX-KSAN

AAL2020 :: KPHX-KSAN

FLIGHT INFORMATION

Flight Status: Arrived
Operator:
American Airlines
More flights by this operator :: More flights under this callsign
Pilot: Camron S. (27302)
Aircraft: BOEING 737-800
(B738)
More flights by this aircraft type
Origin: KPHX Phoenix Sky Harbor Intl
United States
Destination: KSAN San Diego Intl-Lindbergh
United States
More flights between these airports :: More routes between these airports
Route: FYRBD1 MOHAK J2 HOGGZ LUCKI1
File this flight plan on PilotEdge
Remarks:
Altitude:
(Current/Filed)
36,000ft
Speed:
(Current/Filed)
290kts
Departed: 04-Jan-20 06:32 PM
Arrived: 04-Jan-20 07:24 PM
Distance/Time
Traveled:
264nm/0:52
Distance/Time
To Go:
Arrived

Flight Plot

Page will automatically refresh every two minutes.

Flight plan parsing failed; only flown route is shown


Map Options




Map Legend


Flown Route
Filed Route
Departure Airport
Arrival Airport
Navaid (VOR, NDB)
Fix

Horizontal Profiles

Position Reports

Time Latitude Longitude Heading Altitude Ground
Speed
04-Jan-20 18:16 33.434065 -111.998775 303 1136ft 0kts
04-Jan-20 18:17 33.437197 -111.998782 269 1141ft 0kts
04-Jan-20 18:18 33.437197 -111.998782 269 1141ft 0kts
04-Jan-20 18:19 33.437197 -111.998782 269 1141ft 0kts
04-Jan-20 18:20 33.437197 -111.998782 269 1141ft 0kts
04-Jan-20 18:21 33.437197 -111.998782 269 1141ft 0kts
04-Jan-20 18:22 33.437197 -111.998782 269 1141ft 0kts
04-Jan-20 18:23 33.437197 -111.998782 269 1141ft 0kts
04-Jan-20 18:24 33.437090 -111.998245 339 1142ft 2kts
04-Jan-20 18:25 33.436948 -111.998229 0 1142ft 0kts
04-Jan-20 18:26 33.437490 -111.998228 359 1143ft 8kts
04-Jan-20 18:27 33.439033 -112.002988 270 1137ft 31kts
04-Jan-20 18:28 33.439034 -112.013170 269 1129ft 29kts
04-Jan-20 18:29 33.439019 -112.023426 269 1123ft 30kts
04-Jan-20 18:30 33.440628 -112.029617 23 1119ft 14kts
04-Jan-20 18:31 33.440837 -112.015862 90 1128ft 150kts
04-Jan-20 18:32 33.438956 -111.957363 94 3456ft 214kts
04-Jan-20 18:33 33.431666 -111.882409 116 6145ft 250kts
04-Jan-20 18:34 33.378228 -111.849898 203 9313ft 250kts
04-Jan-20 18:35 33.353694 -111.912325 276 12431ft 243kts
04-Jan-20 18:36 33.358514 -112.000632 260 14128ft 309kts
04-Jan-20 18:37 33.314868 -112.094806 236 16896ft 336kts
04-Jan-20 18:38 33.258726 -112.186004 236 19675ft 348kts
04-Jan-20 18:39 33.200406 -112.280745 236 22203ft 359kts
04-Jan-20 18:40 33.140284 -112.378161 236 24466ft 370kts
04-Jan-20 18:41 33.078311 -112.478315 236 26389ft 384kts
04-Jan-20 18:42 33.013500 -112.582762 236 28059ft 399kts
04-Jan-20 18:43 32.957923 -112.693102 253 29527ft 409kts
04-Jan-20 18:44 32.936378 -112.822998 261 31129ft 415kts
04-Jan-20 18:45 32.918258 -112.957857 260 33124ft 410kts
04-Jan-20 18:46 32.900605 -113.087403 260 34920ft 404kts
04-Jan-20 18:47 32.882716 -113.217638 260 36264ft 407kts
04-Jan-20 18:48 32.864041 -113.352580 260 36289ft 414kts
04-Jan-20 18:49 32.845419 -113.485996 260 36290ft 413kts
04-Jan-20 18:50 32.826299 -113.621919 260 36289ft 413kts
04-Jan-20 18:51 32.807125 -113.754819 259 36295ft 413kts
04-Jan-20 18:52 32.787832 -113.889297 260 36294ft 413kts
04-Jan-20 18:53 32.774759 -114.024792 268 36294ft 414kts
04-Jan-20 18:54 32.778496 -114.160898 272 36292ft 414kts
04-Jan-20 18:56 32.784058 -114.297317 271 36291ft 414kts
04-Jan-20 18:57 32.800053 -114.432759 285 36293ft 417kts
04-Jan-20 18:58 32.836303 -114.563439 286 36289ft 417kts
04-Jan-20 18:59 32.871473 -114.692076 283 36294ft 418kts
04-Jan-20 19:00 32.877271 -114.827882 267 36298ft 415kts
04-Jan-20 19:01 32.874061 -114.966829 267 34346ft 422kts
04-Jan-20 19:02 32.870851 -115.105926 267 31494ft 421kts
04-Jan-20 19:03 32.867514 -115.243733 267 28817ft 412kts
04-Jan-20 19:04 32.860246 -115.377054 260 26358ft 398kts
04-Jan-20 19:05 32.841815 -115.504831 260 24326ft 382kts
04-Jan-20 19:06 32.821112 -115.630146 259 23794ft 380kts
04-Jan-20 19:07 32.801452 -115.749977 259 21246ft 376kts
04-Jan-20 19:08 32.783473 -115.869794 265 19334ft 356kts
04-Jan-20 19:09 32.774728 -115.988723 265 17525ft 364kts
04-Jan-20 19:10 32.765822 -116.107053 265 14884ft 348kts
04-Jan-20 19:11 32.757438 -116.217125 265 12649ft 324kts
04-Jan-20 19:12 32.749623 -116.317826 265 11981ft 307kts
04-Jan-20 19:12 32.743103 -116.401334 265 11146ft 301kts
04-Jan-20 19:14 32.734299 -116.512655 264 9990ft 271kts
04-Jan-20 19:15 32.725812 -116.599220 264 9367ft 265kts
04-Jan-20 19:15 32.718956 -116.671307 264 8262ft 264kts
04-Jan-20 19:17 32.711129 -116.772266 264 6699ft 263kts
04-Jan-20 19:17 32.700184 -116.842618 250 5594ft 255kts
04-Jan-20 19:18 32.690431 -116.921167 273 4377ft 244kts
04-Jan-20 19:20 32.695591 -117.010790 274 2958ft 216kts
04-Jan-20 19:20 32.702757 -117.064063 287 2121ft 171kts
04-Jan-20 19:21 32.714608 -117.111951 288 1195ft 146kts
04-Jan-20 19:22 32.726178 -117.158700 287 476ft 146kts
04-Jan-20 19:23 32.735253 -117.196689 283 24ft 37kts
04-Jan-20 19:24 32.734814 -117.199195 236 24ft 9kts
04-Jan-20 19:25 32.733931 -117.200525 255 24ft 0kts
04-Jan-20 19:26 32.733931 -117.200525 254 24ft 0kts

Navigation Log

Ident Type
Flight plan parsing failed, navigation log unavailable